createdAt,value
2022-12-29T00:01:08.663Z,2.80
2022-12-29T00:03:51.465Z,2.30
2022-12-29T00:06:18.771Z,3.23
2022-12-29T00:08:46.281Z,2.57
2022-12-29T00:11:14.895Z,3.27
2022-12-29T00:13:42.241Z,3.03
2022-12-29T00:16:11.069Z,2.83
2022-12-29T00:18:38.327Z,3.10
2022-12-29T00:21:05.728Z,2.30
2022-12-29T00:23:33.281Z,2.77
2022-12-29T00:26:04.422Z,2.50
2022-12-29T00:28:31.718Z,2.63
2022-12-29T00:31:00.494Z,2.70
2022-12-29T00:33:31.795Z,2.90
2022-12-29T00:36:19.351Z,3.30
2022-12-29T00:42:21.621Z,2.60
2022-12-29T00:44:48.849Z,2.90
2022-12-29T00:47:16.163Z,3.20
2022-12-29T00:50:02.190Z,2.73
2022-12-29T00:52:30.946Z,2.93
2022-12-29T00:54:58.220Z,2.97
2022-12-29T00:57:25.455Z,2.70
2022-12-29T00:59:52.991Z,2.67
2022-12-29T01:02:20.355Z,2.87
2022-12-29T01:07:45.153Z,2.53
2022-12-29T01:10:12.810Z,2.43
2022-12-29T01:12:40.092Z,2.53
2022-12-29T01:15:17.220Z,3.13
2022-12-29T01:21:25.941Z,2.50
2022-12-29T01:23:55.139Z,2.40
2022-12-29T01:26:22.585Z,2.50
2022-12-29T01:28:52.685Z,2.47
2022-12-29T01:31:19.959Z,2.70
2022-12-29T01:33:47.209Z,2.50
2022-12-29T01:36:16.941Z,2.33
2022-12-29T01:38:44.850Z,2.43
2022-12-29T01:41:14.575Z,2.40
2022-12-29T01:43:43.655Z,3.00
2022-12-29T01:46:36.620Z,2.60
2022-12-29T01:49:21.406Z,2.80
2022-12-29T01:51:50.443Z,2.17
2022-12-29T01:54:19.381Z,2.50
2022-12-29T01:56:48.240Z,2.20
2022-12-29T01:59:18.710Z,2.60
2022-12-29T02:01:46.228Z,2.50
2022-12-29T02:06:57.366Z,2.73
2022-12-29T02:09:25.018Z,2.70
2022-12-29T02:11:53.987Z,2.17
2022-12-29T02:14:39.333Z,2.40
2022-12-29T02:17:35.073Z,2.50
2022-12-29T02:23:21.497Z,2.53
2022-12-29T02:25:58.347Z,2.50
2022-12-29T02:28:36.375Z,1.90
2022-12-29T02:31:09.576Z,2.40
2022-12-29T02:36:27.430Z,2.90
2022-12-29T02:39:01.183Z,3.13
2022-12-29T02:41:31.734Z,3.87
2022-12-29T02:44:14.013Z,2.90
2022-12-29T02:50:37.815Z,3.00
2022-12-29T02:53:09.539Z,4.43
2022-12-29T02:55:36.975Z,5.60
2022-12-29T02:58:16.955Z,3.37
2022-12-29T03:00:50.127Z,3.63
2022-12-29T03:06:14.317Z,5.03
2022-12-29T03:08:46.253Z,4.60
2022-12-29T03:11:15.875Z,4.10
2022-12-29T03:20:33.095Z,4.20
2022-12-29T03:23:01.901Z,3.40
2022-12-29T03:25:34.991Z,3.20
2022-12-29T03:28:05.743Z,2.93
2022-12-29T03:30:37.662Z,3.60
2022-12-29T03:33:13.994Z,3.73
2022-12-29T03:35:43.489Z,3.03
2022-12-29T03:38:15.155Z,4.00
2022-12-29T03:40:45.635Z,4.40
2022-12-29T03:43:19.784Z,3.67
2022-12-29T03:46:10.020Z,2.80
2022-12-29T03:48:48.593Z,3.73
2022-12-29T03:51:15.916Z,4.20
2022-12-29T03:53:43.423Z,3.10
2022-12-29T03:56:12.035Z,4.20
2022-12-29T03:58:39.349Z,3.70
2022-12-29T04:01:12.707Z,3.53
2022-12-29T04:06:30.102Z,4.00
2022-12-29T04:09:07.022Z,4.23
2022-12-29T04:11:41.504Z,4.77
2022-12-29T04:17:27.990Z,4.17
2022-12-29T04:19:55.488Z,5.07
2022-12-29T04:22:23.027Z,4.90
2022-12-29T04:24:50.265Z,4.90
2022-12-29T04:27:19.008Z,5.23
2022-12-29T04:30:20.273Z,3.97
2022-12-29T04:33:25.159Z,2.93
2022-12-29T04:35:52.501Z,3.80
2022-12-29T04:38:21.101Z,3.07
2022-12-29T04:40:49.026Z,3.50
2022-12-29T04:43:19.423Z,5.17
2022-12-29T04:46:05.569Z,3.63
2022-12-29T04:48:59.693Z,4.03
2022-12-29T04:51:43.441Z,4.80
2022-12-29T04:54:13.007Z,5.00
2022-12-29T04:56:41.092Z,3.80
2022-12-29T04:59:10.139Z,3.93
2022-12-29T05:01:37.419Z,4.03
2022-12-29T05:04:05.693Z,4.00
2022-12-29T05:09:15.983Z,5.03
2022-12-29T05:11:43.239Z,4.73
2022-12-29T05:14:12.252Z,4.30
2022-12-29T05:23:34.069Z,4.17
2022-12-29T05:26:05.668Z,6.03
2022-12-29T05:28:51.290Z,5.37
2022-12-29T05:31:21.612Z,4.47
2022-12-29T05:33:49.482Z,5.53
2022-12-29T05:36:21.974Z,5.23
2022-12-29T05:38:53.910Z,4.60
2022-12-29T05:41:21.463Z,4.73
2022-12-29T05:44:14.977Z,3.63
2022-12-29T05:47:15.544Z,5.40
2022-12-29T05:53:22.346Z,4.43
2022-12-29T05:55:49.890Z,4.40
2022-12-29T05:58:17.899Z,5.37
2022-12-29T06:00:45.308Z,4.20
2022-12-29T06:03:12.954Z,4.03
2022-12-29T06:08:24.372Z,5.20
2022-12-29T06:10:52.219Z,3.80
2022-12-29T06:13:19.870Z,6.13
2022-12-29T06:15:50.313Z,5.47
2022-12-29T06:18:20.343Z,5.33
2022-12-29T06:21:07.901Z,4.93
2022-12-29T06:27:17.757Z,5.57
2022-12-29T06:29:45.292Z,5.90
2022-12-29T06:32:12.993Z,6.40
2022-12-29T06:34:45.900Z,6.13
2022-12-29T06:37:29.194Z,5.10
2022-12-29T06:39:57.174Z,5.80
2022-12-29T06:42:30.193Z,6.53
2022-12-29T06:45:17.678Z,5.23
2022-12-29T06:47:44.965Z,5.40
2022-12-29T06:50:12.243Z,6.47
2022-12-29T06:52:42.832Z,5.27
2022-12-29T06:55:10.504Z,6.47
2022-12-29T06:57:41.280Z,5.63
2022-12-29T07:00:09.474Z,5.80
2022-12-29T07:06:02.501Z,4.93
2022-12-29T07:08:29.994Z,4.77
2022-12-29T07:10:57.240Z,4.47
2022-12-29T07:13:25.914Z,5.90
2022-12-29T07:15:53.136Z,5.10
2022-12-29T07:18:20.372Z,4.77
2022-12-29T07:20:53.855Z,4.97
2022-12-29T07:23:21.133Z,4.47
2022-12-29T07:25:48.412Z,5.17
2022-12-29T07:28:15.670Z,4.90
2022-12-29T07:31:10.756Z,5.37
2022-12-29T07:37:16.231Z,5.13
2022-12-29T07:39:44.712Z,4.70
2022-12-29T07:42:12.002Z,5.57
2022-12-29T07:44:43.349Z,5.83
2022-12-29T07:47:17.250Z,6.27
2022-12-29T07:52:32.410Z,5.80
2022-12-29T07:54:59.789Z,5.30
2022-12-29T07:57:31.767Z,5.77
2022-12-29T08:00:18.326Z,4.93
2022-12-29T08:02:50.841Z,5.87
2022-12-29T08:05:31.791Z,4.90
2022-12-29T08:08:00.424Z,6.43
2022-12-29T08:10:27.741Z,5.97
2022-12-29T08:12:55.008Z,6.47
2022-12-29T08:15:27.084Z,5.73
2022-12-29T08:17:59.055Z,6.00
2022-12-29T08:23:17.173Z,4.93
2022-12-29T08:25:44.435Z,5.47
2022-12-29T08:28:11.675Z,5.90
2022-12-29T08:30:40.655Z,4.53
2022-12-29T08:33:07.959Z,4.97
2022-12-29T08:39:30.800Z,5.07
2022-12-29T08:41:59.558Z,4.97
2022-12-29T08:44:26.797Z,5.67
2022-12-29T08:46:54.133Z,5.43
2022-12-29T08:49:21.484Z,5.90
2022-12-29T08:51:48.752Z,5.50
2022-12-29T08:54:31.045Z,5.77
2022-12-29T08:56:59.716Z,5.70
2022-12-29T08:59:37.136Z,5.77
2022-12-29T09:02:04.718Z,4.47
2022-12-29T09:11:18.004Z,5.10
2022-12-29T09:13:46.926Z,5.60
2022-12-29T09:16:14.368Z,5.73
2022-12-29T09:18:41.681Z,5.70
2022-12-29T09:21:09.280Z,4.50
2022-12-29T09:26:25.826Z,4.37
2022-12-29T09:28:54.462Z,5.47
2022-12-29T09:31:21.852Z,6.20
2022-12-29T09:40:42.296Z,5.60
2022-12-29T09:43:24.117Z,5.30
2022-12-29T09:45:56.508Z,5.83
2022-12-29T09:48:25.365Z,5.37
2022-12-29T09:50:54.775Z,5.37
2022-12-29T09:56:05.540Z,5.87
2022-12-29T09:58:37.036Z,8.30
2022-12-29T10:01:06.563Z,7.20
2022-12-29T10:03:38.069Z,7.87
2022-12-29T10:06:08.983Z,7.43
2022-12-29T10:15:40.072Z,5.43
2022-12-29T10:18:14.540Z,6.77
2022-12-29T10:20:47.687Z,5.00
2022-12-29T10:23:36.206Z,7.73
2022-12-29T10:26:04.549Z,6.17
2022-12-29T10:28:35.875Z,5.43
2022-12-29T10:31:08.677Z,5.60
2022-12-29T10:33:39.261Z,4.57
2022-12-29T10:36:12.446Z,6.13
2022-12-29T10:41:30.780Z,5.57
2022-12-29T10:43:59.455Z,6.43
2022-12-29T10:46:29.369Z,5.70
2022-12-29T10:49:22.079Z,5.33
2022-12-29T10:52:06.683Z,5.57
2022-12-29T10:55:00.054Z,5.37
2022-12-29T10:57:29.023Z,3.90
2022-12-29T10:59:56.714Z,5.30
2022-12-29T11:02:41.856Z,4.10
2022-12-29T11:05:17.261Z,5.33
2022-12-29T11:10:38.961Z,4.17
2022-12-29T11:13:11.954Z,5.23
2022-12-29T11:15:40.648Z,4.60
2022-12-29T11:18:19.794Z,3.83
2022-12-29T11:24:28.453Z,5.00
2022-12-29T11:26:57.719Z,4.60
2022-12-29T11:29:26.642Z,3.67
2022-12-29T11:31:54.712Z,3.37
2022-12-29T11:34:23.296Z,4.03
2022-12-29T11:36:52.597Z,4.03
2022-12-29T11:39:29.478Z,4.87
2022-12-29T11:41:58.405Z,3.77
2022-12-29T11:44:25.876Z,4.20
2022-12-29T11:46:53.745Z,4.13
2022-12-29T11:49:22.421Z,5.57
2022-12-29T11:51:50.873Z,4.00
2022-12-29T11:54:20.719Z,4.10
2022-12-29T11:56:51.618Z,5.40
2022-12-29T11:59:39.009Z,4.23
2022-12-29T12:02:17.184Z,5.20
2022-12-29T12:04:44.581Z,5.93
2022-12-29T12:07:36.659Z,5.87
2022-12-29T12:10:08.054Z,6.87
2022-12-29T12:12:37.622Z,4.47
2022-12-29T12:15:07.215Z,3.23
2022-12-29T12:17:48.744Z,4.07
2022-12-29T12:20:19.800Z,3.73
2022-12-29T12:22:56.858Z,4.80
2022-12-29T12:25:27.613Z,4.23
2022-12-29T12:27:58.169Z,4.13
2022-12-29T12:30:28.474Z,5.10
2022-12-29T12:39:49.182Z,3.90
2022-12-29T12:42:24.935Z,3.87
2022-12-29T12:44:57.434Z,4.67
2022-12-29T12:47:41.816Z,5.10
2022-12-29T12:50:27.729Z,5.10
2022-12-29T12:53:01.561Z,4.40
2022-12-29T12:55:42.951Z,4.73
2022-12-29T12:58:13.769Z,4.07
2022-12-29T13:00:45.353Z,4.37
2022-12-29T13:03:15.572Z,3.30
2022-12-29T13:06:05.813Z,3.70
2022-12-29T13:08:40.707Z,4.70
2022-12-29T13:11:14.680Z,5.30
2022-12-29T13:13:48.761Z,5.23
2022-12-29T13:16:19.398Z,3.40
2022-12-29T13:18:52.485Z,5.07
2022-12-29T13:21:26.680Z,4.13
2022-12-29T13:23:56.983Z,4.70
2022-12-29T13:26:26.837Z,5.63
2022-12-29T13:28:57.419Z,3.97
2022-12-29T13:31:29.655Z,3.37
2022-12-29T13:34:01.686Z,5.20
2022-12-29T13:36:31.489Z,4.30
2022-12-29T13:39:03.431Z,3.33
2022-12-29T13:41:33.074Z,3.80
2022-12-29T13:44:02.278Z,2.63
2022-12-29T13:46:32.994Z,4.73
2022-12-29T13:49:04.177Z,5.20
2022-12-29T13:51:31.732Z,3.87
2022-12-29T13:54:09.304Z,3.90
2022-12-29T13:56:39.964Z,3.87
2022-12-29T13:59:10.630Z,3.77
2022-12-29T14:01:41.954Z,4.17
2022-12-29T14:04:13.415Z,5.27
2022-12-29T14:06:40.952Z,3.00
2022-12-29T14:09:33.613Z,4.30
2022-12-29T14:12:02.643Z,4.17
2022-12-29T14:14:30.772Z,4.63
2022-12-29T14:17:14.516Z,3.77
2022-12-29T14:19:45.411Z,4.53
2022-12-29T14:22:13.089Z,4.17
2022-12-29T14:24:42.353Z,3.67
2022-12-29T14:27:24.560Z,4.90
2022-12-29T14:29:52.339Z,3.90
2022-12-29T14:32:34.488Z,5.50
2022-12-29T14:35:23.068Z,3.70
2022-12-29T14:38:06.132Z,3.83
2022-12-29T14:40:33.425Z,4.87
2022-12-29T14:43:00.795Z,4.20
2022-12-29T14:45:29.046Z,3.77
2022-12-29T14:47:57.003Z,4.33
2022-12-29T14:50:26.568Z,4.53
2022-12-29T14:53:00.310Z,4.07
2022-12-29T14:55:31.927Z,3.40
2022-12-29T14:58:01.188Z,3.30
2022-12-29T15:00:31.209Z,4.40
2022-12-29T15:03:04.284Z,3.63
2022-12-29T15:05:34.296Z,3.70
2022-12-29T15:08:02.045Z,4.20
2022-12-29T15:10:34.005Z,4.33
2022-12-29T15:13:04.922Z,4.37
2022-12-29T15:15:37.820Z,3.20
2022-12-29T15:18:15.098Z,3.63
2022-12-29T15:20:43.955Z,4.23
2022-12-29T15:23:13.576Z,5.13
2022-12-29T15:25:48.378Z,4.63
2022-12-29T15:28:15.743Z,4.20
2022-12-29T15:30:51.784Z,4.67
2022-12-29T15:33:20.101Z,4.33
2022-12-29T15:35:51.269Z,3.47
2022-12-29T15:38:28.138Z,4.83
2022-12-29T15:41:01.557Z,3.80
2022-12-29T15:43:39.522Z,4.63
2022-12-29T15:46:12.322Z,5.80
2022-12-29T15:48:40.084Z,5.40
2022-12-29T15:51:16.664Z,4.60
2022-12-29T15:53:44.433Z,4.20
2022-12-29T15:56:12.104Z,4.03
2022-12-29T15:58:41.588Z,4.53
2022-12-29T16:01:18.288Z,4.33
2022-12-29T16:03:46.565Z,4.93
2022-12-29T16:06:27.864Z,4.43
2022-12-29T16:08:57.678Z,4.40
2022-12-29T16:11:26.904Z,3.57
2022-12-29T16:13:55.112Z,4.90
2022-12-29T16:16:23.893Z,4.70
2022-12-29T16:18:57.274Z,4.50
2022-12-29T16:21:27.519Z,4.43
2022-12-29T16:23:56.279Z,5.07
2022-12-29T16:26:24.996Z,4.60
2022-12-29T16:28:53.195Z,4.20
2022-12-29T16:31:22.542Z,4.60
2022-12-29T16:33:51.208Z,3.77
2022-12-29T16:36:25.758Z,4.20
2022-12-29T16:39:04.493Z,4.90
2022-12-29T16:41:32.385Z,4.90
2022-12-29T16:44:17.497Z,4.77
2022-12-29T16:46:46.392Z,5.90
2022-12-29T16:49:23.475Z,4.10
2022-12-29T16:51:50.791Z,4.33
2022-12-29T16:54:22.132Z,4.17
2022-12-29T16:56:49.772Z,4.60
2022-12-29T16:59:25.713Z,4.47
2022-12-29T17:01:53.082Z,3.73
2022-12-29T17:04:20.410Z,4.90
2022-12-29T17:06:47.642Z,4.07
2022-12-29T17:09:18.173Z,3.63
2022-12-29T17:11:52.510Z,4.83
2022-12-29T17:14:29.651Z,4.20
2022-12-29T17:16:56.962Z,4.40
2022-12-29T17:19:28.230Z,3.83
2022-12-29T17:21:55.461Z,3.00
2022-12-29T17:24:22.687Z,4.80
2022-12-29T17:26:52.910Z,3.97
2022-12-29T17:29:22.535Z,4.20
2022-12-29T17:31:49.886Z,4.07
2022-12-29T17:34:17.149Z,3.43
2022-12-29T17:36:44.372Z,3.20
2022-12-29T17:39:11.823Z,4.90
2022-12-29T17:41:39.054Z,5.73
2022-12-29T17:44:15.299Z,5.37
2022-12-29T17:46:42.594Z,4.70
2022-12-29T17:49:11.613Z,5.97
2022-12-29T17:51:38.933Z,4.60
2022-12-29T17:54:06.282Z,4.03
2022-12-29T17:56:33.551Z,4.53
2022-12-29T17:59:13.107Z,6.20
2022-12-29T18:01:50.319Z,5.23
2022-12-29T18:04:21.023Z,3.80
2022-12-29T18:06:48.302Z,5.73
2022-12-29T18:09:15.602Z,4.60
2022-12-29T18:11:43.905Z,4.40
2022-12-29T18:14:12.808Z,4.67
2022-12-29T18:16:40.459Z,4.17
2022-12-29T18:19:09.332Z,5.33
2022-12-29T18:21:36.970Z,4.57
2022-12-29T18:24:04.396Z,4.93
2022-12-29T18:26:31.745Z,4.37
2022-12-29T18:28:59.769Z,5.50
2022-12-29T18:31:28.496Z,4.93
2022-12-29T18:33:57.221Z,4.17
2022-12-29T18:36:26.175Z,5.17
2022-12-29T18:38:53.500Z,4.33
2022-12-29T18:41:21.692Z,4.33
2022-12-29T18:43:49.035Z,4.57
2022-12-29T18:46:22.368Z,5.00
2022-12-29T18:48:51.177Z,4.80
2022-12-29T18:51:19.963Z,5.33
2022-12-29T18:53:48.783Z,5.80
2022-12-29T18:56:16.019Z,5.53
2022-12-29T18:58:45.358Z,5.17
2022-12-29T19:01:19.169Z,5.37
2022-12-29T19:04:14.588Z,5.90
2022-12-29T19:10:39.457Z,5.37
2022-12-29T19:13:08.506Z,5.57
2022-12-29T19:15:39.483Z,5.50
2022-12-29T19:20:55.225Z,5.87
2022-12-29T19:23:23.583Z,4.93
2022-12-29T19:25:51.719Z,5.93
2022-12-29T19:28:21.478Z,6.23
2022-12-29T19:30:52.148Z,7.23
2022-12-29T19:33:20.228Z,6.43
2022-12-29T19:35:47.675Z,6.17
2022-12-29T19:38:15.128Z,5.30
2022-12-29T19:40:42.788Z,6.97
2022-12-29T19:43:10.659Z,5.97
2022-12-29T19:45:39.755Z,5.80
2022-12-29T19:48:07.048Z,6.47
2022-12-29T19:50:34.356Z,5.53
2022-12-29T19:53:05.435Z,6.10
2022-12-29T19:55:33.289Z,7.67
2022-12-29T19:58:00.566Z,5.43
2022-12-29T20:00:27.812Z,6.50
2022-12-29T20:02:56.677Z,6.80
2022-12-29T20:05:24.017Z,7.30
2022-12-29T20:07:51.376Z,6.23
2022-12-29T20:10:18.781Z,5.87
2022-12-29T20:12:46.051Z,6.60
2022-12-29T20:15:13.383Z,5.90
2022-12-29T20:20:29.202Z,5.67
2022-12-29T20:22:56.446Z,5.93
2022-12-29T20:28:12.060Z,5.60
2022-12-29T20:30:39.703Z,5.07
2022-12-29T20:33:08.675Z,5.60
2022-12-29T20:35:37.651Z,5.97
2022-12-29T20:38:05.475Z,6.10
2022-12-29T20:40:33.035Z,6.00
2022-12-29T20:43:00.354Z,5.93
2022-12-29T20:45:27.711Z,5.53
2022-12-29T20:47:55.023Z,5.53
2022-12-29T20:50:22.250Z,6.70
2022-12-29T20:52:50.945Z,6.40
2022-12-29T20:55:18.309Z,5.63
2022-12-29T20:58:22.607Z,7.87
2022-12-29T21:00:35.725Z,5.07
2022-12-29T21:03:03.032Z,7.27
2022-12-29T21:05:30.519Z,6.77
2022-12-29T21:07:59.222Z,8.10
2022-12-29T21:10:26.435Z,5.97
2022-12-29T21:12:53.672Z,7.10
2022-12-29T21:15:21.103Z,7.10
2022-12-29T21:17:48.480Z,7.00
2022-12-29T21:20:16.350Z,5.77
2022-12-29T21:22:43.622Z,7.53
2022-12-29T21:25:12.251Z,6.93
2022-12-29T21:27:39.598Z,8.53
2022-12-29T21:30:07.480Z,7.07
2022-12-29T21:32:34.679Z,6.57
2022-12-29T21:35:02.004Z,6.83
2022-12-29T21:37:29.237Z,5.80
2022-12-29T21:39:56.706Z,5.43
2022-12-29T21:42:25.381Z,5.37
2022-12-29T21:44:52.675Z,4.87
2022-12-29T21:47:19.921Z,5.40
2022-12-29T21:49:47.128Z,4.80
2022-12-29T21:52:14.327Z,5.23
2022-12-29T21:54:41.753Z,4.60
2022-12-29T21:57:09.454Z,4.10
2022-12-29T21:59:38.167Z,6.43
2022-12-29T22:02:07.233Z,4.73
2022-12-29T22:04:34.584Z,4.37
2022-12-29T22:07:02.071Z,4.67
2022-12-29T22:09:29.292Z,5.30
2022-12-29T22:11:56.556Z,5.10
2022-12-29T22:14:23.796Z,4.10
2022-12-29T22:16:52.701Z,3.73
2022-12-29T22:19:19.968Z,5.93
2022-12-29T22:21:47.258Z,4.80
2022-12-29T22:24:14.561Z,4.77
2022-12-29T22:26:41.832Z,4.10
2022-12-29T22:29:09.058Z,4.80
2022-12-29T22:31:36.356Z,5.43
2022-12-29T22:34:05.375Z,5.33
2022-12-29T22:36:32.870Z,5.53
2022-12-29T22:39:00.151Z,6.47
2022-12-29T22:41:27.372Z,5.13
2022-12-29T22:43:55.410Z,5.30
2022-12-29T22:46:22.912Z,5.30
2022-12-29T22:48:50.270Z,5.70
2022-12-29T22:51:18.904Z,4.97
2022-12-29T22:53:48.836Z,5.17
2022-12-29T22:56:16.153Z,4.67
2022-12-29T22:58:43.988Z,5.37
2022-12-29T23:01:11.879Z,5.03
2022-12-29T23:03:39.541Z,5.27
2022-12-29T23:06:08.160Z,4.83
2022-12-29T23:08:37.979Z,5.10
2022-12-29T23:11:06.442Z,4.53
2022-12-29T23:13:33.650Z,4.27
2022-12-29T23:16:01.097Z,5.87
2022-12-29T23:18:28.509Z,3.67
2022-12-29T23:20:55.924Z,4.60
2022-12-29T23:23:23.247Z,4.50
2022-12-29T23:25:51.870Z,3.77
2022-12-29T23:28:19.075Z,5.03
2022-12-29T23:30:46.415Z,4.30
2022-12-29T23:33:13.697Z,5.13
2022-12-29T23:35:40.954Z,4.83
2022-12-29T23:38:08.220Z,4.10
2022-12-29T23:40:35.490Z,3.73
2022-12-29T23:43:04.204Z,5.23
2022-12-29T23:45:31.408Z,4.87
2022-12-29T23:48:01.029Z,5.80
2022-12-29T23:50:28.323Z,4.57
2022-12-29T23:55:53.211Z,4.87
2022-12-29T23:58:22.706Z,3.50
